sensor_id;sensor_type;location;lat;lon;timestamp;P1;durP1;ratioP1;P2;durP2;ratioP2
22080;SDS011;11207;59.512;18.050;2023-04-15T00:00:27;8.50;;;5.17;;
22080;SDS011;11207;59.512;18.050;2023-04-15T00:02:53;11.63;;;5.40;;
22080;SDS011;11207;59.512;18.050;2023-04-15T00:05:19;12.45;;;5.85;;
22080;SDS011;11207;59.512;18.050;2023-04-15T00:07:45;11.17;;;5.53;;
22080;SDS011;11207;59.512;18.050;2023-04-15T00:10:11;7.03;;;5.17;;
22080;SDS011;11207;59.512;18.050;2023-04-15T00:12:38;17.50;;;6.00;;
22080;SDS011;11207;59.512;18.050;2023-04-15T00:15:04;6.93;;;5.10;;
22080;SDS011;11207;59.512;18.050;2023-04-15T00:17:32;5.90;;;5.00;;
22080;SDS011;11207;59.512;18.050;2023-04-15T00:19:58;13.33;;;5.20;;
22080;SDS011;11207;59.512;18.050;2023-04-15T00:22:24;8.13;;;4.67;;
22080;SDS011;11207;59.512;18.050;2023-04-15T00:24:51;8.57;;;5.33;;
22080;SDS011;11207;59.512;18.050;2023-04-15T00:27:17;13.57;;;6.03;;
22080;SDS011;11207;59.512;18.050;2023-04-15T00:29:43;10.80;;;5.60;;
22080;SDS011;11207;59.512;18.050;2023-04-15T00:32:09;11.23;;;5.83;;
22080;SDS011;11207;59.512;18.050;2023-04-15T00:34:34;15.03;;;6.00;;
22080;SDS011;11207;59.512;18.050;2023-04-15T00:37:00;11.20;;;5.80;;
22080;SDS011;11207;59.512;18.050;2023-04-15T00:39:26;11.43;;;5.57;;
22080;SDS011;11207;59.512;18.050;2023-04-15T00:41:52;6.63;;;5.17;;
22080;SDS011;11207;59.512;18.050;2023-04-15T00:44:18;12.43;;;5.97;;
22080;SDS011;11207;59.512;18.050;2023-04-15T00:46:44;11.63;;;5.40;;
22080;SDS011;11207;59.512;18.050;2023-04-15T00:49:10;9.67;;;5.40;;
22080;SDS011;11207;59.512;18.050;2023-04-15T00:51:37;12.63;;;5.87;;
22080;SDS011;11207;59.512;18.050;2023-04-15T00:54:03;11.67;;;6.03;;
22080;SDS011;11207;59.512;18.050;2023-04-15T00:56:29;11.47;;;5.73;;
22080;SDS011;11207;59.512;18.050;2023-04-15T00:58:55;12.70;;;5.70;;
22080;SDS011;11207;59.512;18.050;2023-04-15T01:01:21;12.07;;;6.13;;
22080;SDS011;11207;59.512;18.050;2023-04-15T01:03:49;8.27;;;5.67;;
22080;SDS011;11207;59.512;18.050;2023-04-15T01:06:15;13.27;;;6.10;;
22080;SDS011;11207;59.512;18.050;2023-04-15T01:08:41;12.37;;;6.10;;
22080;SDS011;11207;59.512;18.050;2023-04-15T01:11:07;11.00;;;5.43;;
22080;SDS011;11207;59.512;18.050;2023-04-15T01:13:34;12.30;;;6.23;;
22080;SDS011;11207;59.512;18.050;2023-04-15T01:16:00;9.00;;;5.57;;
22080;SDS011;11207;59.512;18.050;2023-04-15T01:18:27;11.10;;;5.77;;
22080;SDS011;11207;59.512;18.050;2023-04-15T01:20:53;11.27;;;5.40;;
22080;SDS011;11207;59.512;18.050;2023-04-15T01:23:19;13.80;;;6.33;;
22080;SDS011;11207;59.512;18.050;2023-04-15T01:25:46;10.13;;;5.73;;
22080;SDS011;11207;59.512;18.050;2023-04-15T01:28:13;14.80;;;5.87;;
22080;SDS011;11207;59.512;18.050;2023-04-15T01:30:40;15.60;;;6.10;;
22080;SDS011;11207;59.512;18.050;2023-04-15T01:33:05;12.27;;;6.00;;
22080;SDS011;11207;59.512;18.050;2023-04-15T01:35:31;9.83;;;5.90;;
22080;SDS011;11207;59.512;18.050;2023-04-15T01:37:59;11.07;;;6.30;;
22080;SDS011;11207;59.512;18.050;2023-04-15T01:40:31;13.47;;;5.93;;
22080;SDS011;11207;59.512;18.050;2023-04-15T01:42:58;9.10;;;6.27;;
22080;SDS011;11207;59.512;18.050;2023-04-15T01:45:24;13.47;;;6.33;;
22080;SDS011;11207;59.512;18.050;2023-04-15T01:47:49;12.57;;;6.07;;
22080;SDS011;11207;59.512;18.050;2023-04-15T01:50:15;10.63;;;5.93;;
22080;SDS011;11207;59.512;18.050;2023-04-15T01:52:41;11.30;;;5.93;;
22080;SDS011;11207;59.512;18.050;2023-04-15T01:55:07;12.97;;;6.20;;
22080;SDS011;11207;59.512;18.050;2023-04-15T01:57:33;15.03;;;5.77;;
22080;SDS011;11207;59.512;18.050;2023-04-15T01:59:59;13.50;;;7.00;;
22080;SDS011;11207;59.512;18.050;2023-04-15T02:02:25;11.70;;;6.17;;
22080;SDS011;11207;59.512;18.050;2023-04-15T02:04:50;9.10;;;6.43;;
22080;SDS011;11207;59.512;18.050;2023-04-15T02:07:17;15.37;;;6.57;;
22080;SDS011;11207;59.512;18.050;2023-04-15T02:09:43;17.27;;;7.37;;
22080;SDS011;11207;59.512;18.050;2023-04-15T02:12:10;12.87;;;6.03;;
22080;SDS011;11207;59.512;18.050;2023-04-15T02:14:35;12.63;;;6.07;;
22080;SDS011;11207;59.512;18.050;2023-04-15T02:17:01;15.57;;;6.50;;
22080;SDS011;11207;59.512;18.050;2023-04-15T02:19:31;13.90;;;5.83;;
22080;SDS011;11207;59.512;18.050;2023-04-15T02:21:57;16.27;;;6.33;;
22080;SDS011;11207;59.512;18.050;2023-04-15T02:24:25;14.87;;;6.53;;
22080;SDS011;11207;59.512;18.050;2023-04-15T02:26:51;7.23;;;5.83;;
22080;SDS011;11207;59.512;18.050;2023-04-15T02:29:17;16.07;;;6.20;;
22080;SDS011;11207;59.512;18.050;2023-04-15T02:31:42;15.60;;;6.33;;
22080;SDS011;11207;59.512;18.050;2023-04-15T02:34:09;12.43;;;6.70;;
22080;SDS011;11207;59.512;18.050;2023-04-15T02:36:34;15.00;;;6.50;;
22080;SDS011;11207;59.512;18.050;2023-04-15T02:39:00;10.20;;;5.83;;
22080;SDS011;11207;59.512;18.050;2023-04-15T02:41:26;13.07;;;7.07;;
22080;SDS011;11207;59.512;18.050;2023-04-15T02:43:54;12.03;;;5.97;;
22080;SDS011;11207;59.512;18.050;2023-04-15T02:46:19;11.77;;;5.93;;
22080;SDS011;11207;59.512;18.050;2023-04-15T02:48:46;13.53;;;6.47;;
22080;SDS011;11207;59.512;18.050;2023-04-15T02:51:19;13.47;;;6.70;;
22080;SDS011;11207;59.512;18.050;2023-04-15T02:53:46;13.63;;;6.30;;
22080;SDS011;11207;59.512;18.050;2023-04-15T02:56:13;15.97;;;6.37;;
22080;SDS011;11207;59.512;18.050;2023-04-15T02:58:43;12.47;;;6.23;;
22080;SDS011;11207;59.512;18.050;2023-04-15T03:01:14;16.90;;;5.90;;
22080;SDS011;11207;59.512;18.050;2023-04-15T03:03:40;10.63;;;5.97;;
22080;SDS011;11207;59.512;18.050;2023-04-15T03:06:06;12.07;;;5.73;;
22080;SDS011;11207;59.512;18.050;2023-04-15T03:08:32;12.27;;;5.50;;
22080;SDS011;11207;59.512;18.050;2023-04-15T03:10:58;9.40;;;5.47;;
22080;SDS011;11207;59.512;18.050;2023-04-15T03:13:24;8.00;;;5.33;;
22080;SDS011;11207;59.512;18.050;2023-04-15T03:15:50;11.87;;;5.80;;
22080;SDS011;11207;59.512;18.050;2023-04-15T03:18:16;14.53;;;5.73;;
22080;SDS011;11207;59.512;18.050;2023-04-15T03:20:41;18.03;;;5.93;;
22080;SDS011;11207;59.512;18.050;2023-04-15T03:23:07;12.60;;;6.50;;
22080;SDS011;11207;59.512;18.050;2023-04-15T03:25:32;16.17;;;5.97;;
22080;SDS011;11207;59.512;18.050;2023-04-15T03:27:59;13.40;;;6.53;;
22080;SDS011;11207;59.512;18.050;2023-04-15T03:30:24;15.20;;;6.00;;
22080;SDS011;11207;59.512;18.050;2023-04-15T03:32:50;12.57;;;5.93;;
22080;SDS011;11207;59.512;18.050;2023-04-15T03:35:16;9.70;;;5.57;;
22080;SDS011;11207;59.512;18.050;2023-04-15T03:37:41;12.90;;;5.43;;
22080;SDS011;11207;59.512;18.050;2023-04-15T03:40:07;9.00;;;6.00;;
22080;SDS011;11207;59.512;18.050;2023-04-15T03:42:33;10.80;;;5.90;;
22080;SDS011;11207;59.512;18.050;2023-04-15T03:44:59;11.13;;;5.77;;
22080;SDS011;11207;59.512;18.050;2023-04-15T03:47:25;10.70;;;5.70;;
22080;SDS011;11207;59.512;18.050;2023-04-15T03:49:50;15.57;;;6.27;;
22080;SDS011;11207;59.512;18.050;2023-04-15T03:52:16;9.97;;;5.77;;
22080;SDS011;11207;59.512;18.050;2023-04-15T03:54:41;9.13;;;5.50;;
22080;SDS011;11207;59.512;18.050;2023-04-15T03:57:07;12.43;;;5.87;;
22080;SDS011;11207;59.512;18.050;2023-04-15T03:59:33;10.97;;;6.17;;
22080;SDS011;11207;59.512;18.050;2023-04-15T04:01:58;16.23;;;7.03;;
22080;SDS011;11207;59.512;18.050;2023-04-15T04:04:24;19.23;;;6.33;;
22080;SDS011;11207;59.512;18.050;2023-04-15T04:06:50;10.13;;;5.20;;
22080;SDS011;11207;59.512;18.050;2023-04-15T04:09:15;13.83;;;4.83;;
22080;SDS011;11207;59.512;18.050;2023-04-15T04:11:41;10.17;;;5.83;;
22080;SDS011;11207;59.512;18.050;2023-04-15T04:14:06;11.40;;;5.83;;
22080;SDS011;11207;59.512;18.050;2023-04-15T04:16:32;10.50;;;5.67;;
22080;SDS011;11207;59.512;18.050;2023-04-15T04:18:58;12.10;;;5.80;;
22080;SDS011;11207;59.512;18.050;2023-04-15T04:21:24;19.20;;;6.10;;
22080;SDS011;11207;59.512;18.050;2023-04-15T04:23:50;9.03;;;5.70;;
22080;SDS011;11207;59.512;18.050;2023-04-15T04:26:16;11.27;;;5.30;;
22080;SDS011;11207;59.512;18.050;2023-04-15T04:28:41;11.13;;;6.30;;
22080;SDS011;11207;59.512;18.050;2023-04-15T04:31:07;8.53;;;5.33;;
22080;SDS011;11207;59.512;18.050;2023-04-15T04:33:33;11.93;;;5.53;;
22080;SDS011;11207;59.512;18.050;2023-04-15T04:35:58;13.67;;;6.67;;
22080;SDS011;11207;59.512;18.050;2023-04-15T04:38:24;13.50;;;5.70;;
22080;SDS011;11207;59.512;18.050;2023-04-15T04:40:49;9.93;;;5.40;;
22080;SDS011;11207;59.512;18.050;2023-04-15T04:43:15;8.10;;;5.10;;
22080;SDS011;11207;59.512;18.050;2023-04-15T04:45:41;16.93;;;5.57;;
22080;SDS011;11207;59.512;18.050;2023-04-15T04:48:06;6.33;;;5.10;;
22080;SDS011;11207;59.512;18.050;2023-04-15T04:50:33;12.67;;;5.23;;
22080;SDS011;11207;59.512;18.050;2023-04-15T04:52:59;13.20;;;5.87;;
22080;SDS011;11207;59.512;18.050;2023-04-15T04:55:25;15.60;;;5.80;;
22080;SDS011;11207;59.512;18.050;2023-04-15T04:57:51;12.07;;;5.53;;
22080;SDS011;11207;59.512;18.050;2023-04-15T05:00:16;9.13;;;4.93;;
22080;SDS011;11207;59.512;18.050;2023-04-15T05:02:43;9.73;;;5.73;;
22080;SDS011;11207;59.512;18.050;2023-04-15T05:05:09;11.97;;;6.00;;
22080;SDS011;11207;59.512;18.050;2023-04-15T05:07:36;9.10;;;5.13;;
22080;SDS011;11207;59.512;18.050;2023-04-15T05:10:02;10.63;;;5.33;;
22080;SDS011;11207;59.512;18.050;2023-04-15T05:12:28;11.03;;;5.37;;
22080;SDS011;11207;59.512;18.050;2023-04-15T05:14:53;9.00;;;5.10;;
22080;SDS011;11207;59.512;18.050;2023-04-15T05:17:19;8.93;;;5.30;;
22080;SDS011;11207;59.512;18.050;2023-04-15T05:19:45;13.17;;;5.50;;
22080;SDS011;11207;59.512;18.050;2023-04-15T05:22:10;11.50;;;5.93;;
22080;SDS011;11207;59.512;18.050;2023-04-15T05:24:36;11.70;;;5.23;;
22080;SDS011;11207;59.512;18.050;2023-04-15T05:27:01;7.10;;;5.37;;
22080;SDS011;11207;59.512;18.050;2023-04-15T05:29:27;11.00;;;5.53;;
22080;SDS011;11207;59.512;18.050;2023-04-15T05:31:53;11.40;;;5.47;;
22080;SDS011;11207;59.512;18.050;2023-04-15T05:34:19;7.43;;;5.10;;
22080;SDS011;11207;59.512;18.050;2023-04-15T05:36:45;15.77;;;5.73;;
22080;SDS011;11207;59.512;18.050;2023-04-15T05:39:11;7.50;;;5.20;;
22080;SDS011;11207;59.512;18.050;2023-04-15T05:41:36;9.20;;;5.53;;
22080;SDS011;11207;59.512;18.050;2023-04-15T05:44:02;10.30;;;5.37;;
22080;SDS011;11207;59.512;18.050;2023-04-15T05:46:28;15.53;;;5.30;;
22080;SDS011;11207;59.512;18.050;2023-04-15T05:48:53;10.57;;;5.37;;
22080;SDS011;11207;59.512;18.050;2023-04-15T05:51:19;10.10;;;5.33;;
22080;SDS011;11207;59.512;18.050;2023-04-15T05:53:45;10.70;;;5.80;;
22080;SDS011;11207;59.512;18.050;2023-04-15T05:56:10;12.03;;;5.20;;
22080;SDS011;11207;59.512;18.050;2023-04-15T05:58:36;9.03;;;5.10;;
22080;SDS011;11207;59.512;18.050;2023-04-15T06:01:02;10.63;;;5.20;;
22080;SDS011;11207;59.512;18.050;2023-04-15T06:03:28;9.07;;;5.50;;
22080;SDS011;11207;59.512;18.050;2023-04-15T06:05:54;12.73;;;6.30;;
22080;SDS011;11207;59.512;18.050;2023-04-15T06:08:20;8.23;;;5.20;;
22080;SDS011;11207;59.512;18.050;2023-04-15T06:10:46;10.43;;;4.93;;
22080;SDS011;11207;59.512;18.050;2023-04-15T06:13:12;7.37;;;5.23;;
22080;SDS011;11207;59.512;18.050;2023-04-15T06:15:37;9.17;;;5.30;;
22080;SDS011;11207;59.512;18.050;2023-04-15T06:18:03;14.00;;;5.53;;
22080;SDS011;11207;59.512;18.050;2023-04-15T06:20:29;10.97;;;4.73;;
22080;SDS011;11207;59.512;18.050;2023-04-15T06:22:54;11.03;;;5.00;;
22080;SDS011;11207;59.512;18.050;2023-04-15T06:25:21;11.63;;;4.80;;
22080;SDS011;11207;59.512;18.050;2023-04-15T06:27:47;10.37;;;4.80;;
22080;SDS011;11207;59.512;18.050;2023-04-15T06:30:12;6.70;;;4.63;;
22080;SDS011;11207;59.512;18.050;2023-04-15T06:32:38;7.50;;;5.43;;
22080;SDS011;11207;59.512;18.050;2023-04-15T06:35:04;11.03;;;4.77;;
22080;SDS011;11207;59.512;18.050;2023-04-15T06:37:29;11.77;;;5.00;;
22080;SDS011;11207;59.512;18.050;2023-04-15T06:39:56;14.33;;;5.27;;
22080;SDS011;11207;59.512;18.050;2023-04-15T06:42:22;8.93;;;4.70;;
22080;SDS011;11207;59.512;18.050;2023-04-15T06:44:47;10.67;;;5.00;;
22080;SDS011;11207;59.512;18.050;2023-04-15T06:47:13;10.73;;;4.73;;
22080;SDS011;11207;59.512;18.050;2023-04-15T06:49:39;10.27;;;5.03;;
22080;SDS011;11207;59.512;18.050;2023-04-15T06:52:05;9.67;;;4.70;;
22080;SDS011;11207;59.512;18.050;2023-04-15T06:54:31;7.70;;;5.17;;
22080;SDS011;11207;59.512;18.050;2023-04-15T06:56:57;10.10;;;5.00;;
22080;SDS011;11207;59.512;18.050;2023-04-15T06:59:22;8.80;;;4.23;;
22080;SDS011;11207;59.512;18.050;2023-04-15T07:01:48;9.53;;;5.03;;
22080;SDS011;11207;59.512;18.050;2023-04-15T07:04:13;9.23;;;4.80;;
22080;SDS011;11207;59.512;18.050;2023-04-15T07:06:39;8.03;;;4.70;;
22080;SDS011;11207;59.512;18.050;2023-04-15T07:09:06;8.53;;;4.83;;
22080;SDS011;11207;59.512;18.050;2023-04-15T07:11:32;8.60;;;4.70;;
22080;SDS011;11207;59.512;18.050;2023-04-15T07:13:58;7.93;;;4.87;;
22080;SDS011;11207;59.512;18.050;2023-04-15T07:16:23;11.80;;;4.90;;
22080;SDS011;11207;59.512;18.050;2023-04-15T07:18:49;8.07;;;4.87;;
22080;SDS011;11207;59.512;18.050;2023-04-15T07:21:15;8.80;;;4.97;;
22080;SDS011;11207;59.512;18.050;2023-04-15T07:23:43;8.43;;;4.60;;
22080;SDS011;11207;59.512;18.050;2023-04-15T07:26:13;8.93;;;4.80;;
22080;SDS011;11207;59.512;18.050;2023-04-15T07:28:38;9.80;;;4.67;;
22080;SDS011;11207;59.512;18.050;2023-04-15T07:31:04;9.93;;;5.57;;
22080;SDS011;11207;59.512;18.050;2023-04-15T07:33:30;10.77;;;4.60;;
22080;SDS011;11207;59.512;18.050;2023-04-15T07:35:55;8.90;;;4.63;;
22080;SDS011;11207;59.512;18.050;2023-04-15T07:38:21;7.17;;;4.47;;
22080;SDS011;11207;59.512;18.050;2023-04-15T07:40:47;11.10;;;5.07;;
22080;SDS011;11207;59.512;18.050;2023-04-15T07:43:13;8.40;;;4.70;;
22080;SDS011;11207;59.512;18.050;2023-04-15T07:45:39;9.62;;;4.80;;
22080;SDS011;11207;59.512;18.050;2023-04-15T07:48:05;8.67;;;4.23;;
22080;SDS011;11207;59.512;18.050;2023-04-15T07:50:31;4.40;;;3.83;;
22080;SDS011;11207;59.512;18.050;2023-04-15T07:52:56;10.57;;;4.93;;
22080;SDS011;11207;59.512;18.050;2023-04-15T07:55:22;7.40;;;4.47;;
22080;SDS011;11207;59.512;18.050;2023-04-15T07:57:48;6.40;;;4.63;;
22080;SDS011;11207;59.512;18.050;2023-04-15T08:00:14;7.43;;;4.17;;
22080;SDS011;11207;59.512;18.050;2023-04-15T08:02:41;9.50;;;4.30;;
22080;SDS011;11207;59.512;18.050;2023-04-15T08:05:07;6.77;;;4.07;;
22080;SDS011;11207;59.512;18.050;2023-04-15T08:07:35;7.50;;;4.60;;
22080;SDS011;11207;59.512;18.050;2023-04-15T08:10:01;6.47;;;4.40;;
22080;SDS011;11207;59.512;18.050;2023-04-15T08:12:27;10.53;;;4.67;;
22080;SDS011;11207;59.512;18.050;2023-04-15T08:14:53;6.47;;;3.93;;
22080;SDS011;11207;59.512;18.050;2023-04-15T08:17:20;6.57;;;4.10;;
22080;SDS011;11207;59.512;18.050;2023-04-15T08:19:46;6.60;;;4.40;;
22080;SDS011;11207;59.512;18.050;2023-04-15T08:22:12;7.57;;;4.20;;
22080;SDS011;11207;59.512;18.050;2023-04-15T08:24:38;7.53;;;4.73;;
22080;SDS011;11207;59.512;18.050;2023-04-15T08:27:04;6.77;;;4.33;;
22080;SDS011;11207;59.512;18.050;2023-04-15T08:29:30;4.60;;;3.93;;
22080;SDS011;11207;59.512;18.050;2023-04-15T08:31:58;8.07;;;4.47;;
22080;SDS011;11207;59.512;18.050;2023-04-15T08:34:25;5.40;;;3.87;;
22080;SDS011;11207;59.512;18.050;2023-04-15T08:36:51;5.80;;;4.13;;
22080;SDS011;11207;59.512;18.050;2023-04-15T08:39:16;5.73;;;4.20;;
22080;SDS011;11207;59.512;18.050;2023-04-15T08:41:46;10.43;;;4.00;;
22080;SDS011;11207;59.512;18.050;2023-04-15T08:44:15;9.60;;;4.53;;
22080;SDS011;11207;59.512;18.050;2023-04-15T08:46:42;7.87;;;3.97;;
22080;SDS011;11207;59.512;18.050;2023-04-15T08:49:11;5.80;;;4.20;;
22080;SDS011;11207;59.512;18.050;2023-04-15T08:51:37;5.63;;;4.53;;
22080;SDS011;11207;59.512;18.050;2023-04-15T08:54:10;5.33;;;4.00;;
22080;SDS011;11207;59.512;18.050;2023-04-15T08:56:37;6.70;;;4.60;;
22080;SDS011;11207;59.512;18.050;2023-04-15T08:59:03;6.07;;;4.33;;
22080;SDS011;11207;59.512;18.050;2023-04-15T09:01:30;6.43;;;4.00;;
22080;SDS011;11207;59.512;18.050;2023-04-15T09:03:56;5.60;;;3.67;;
22080;SDS011;11207;59.512;18.050;2023-04-15T09:06:23;5.83;;;3.97;;
22080;SDS011;11207;59.512;18.050;2023-04-15T09:08:50;5.43;;;3.90;;
22080;SDS011;11207;59.512;18.050;2023-04-15T09:11:17;7.10;;;4.20;;
22080;SDS011;11207;59.512;18.050;2023-04-15T09:13:43;8.87;;;4.50;;
22080;SDS011;11207;59.512;18.050;2023-04-15T09:16:10;4.90;;;4.10;;
22080;SDS011;11207;59.512;18.050;2023-04-15T09:18:36;6.53;;;4.27;;
22080;SDS011;11207;59.512;18.050;2023-04-15T09:21:06;5.53;;;4.03;;
22080;SDS011;11207;59.512;18.050;2023-04-15T09:23:39;6.80;;;3.77;;
22080;SDS011;11207;59.512;18.050;2023-04-15T09:26:06;6.67;;;3.97;;
22080;SDS011;11207;59.512;18.050;2023-04-15T09:28:32;9.90;;;4.30;;
22080;SDS011;11207;59.512;18.050;2023-04-15T09:31:04;8.20;;;4.40;;
22080;SDS011;11207;59.512;18.050;2023-04-15T09:33:30;6.97;;;4.10;;
22080;SDS011;11207;59.512;18.050;2023-04-15T09:36:00;7.80;;;4.23;;
22080;SDS011;11207;59.512;18.050;2023-04-15T09:38:30;8.80;;;4.10;;
22080;SDS011;11207;59.512;18.050;2023-04-15T09:40:56;5.43;;;4.00;;
22080;SDS011;11207;59.512;18.050;2023-04-15T09:43:22;9.50;;;4.30;;
22080;SDS011;11207;59.512;18.050;2023-04-15T09:46:01;7.50;;;3.70;;
22080;SDS011;11207;59.512;18.050;2023-04-15T09:48:27;5.40;;;3.83;;
22080;SDS011;11207;59.512;18.050;2023-04-15T09:50:58;5.27;;;4.23;;
22080;SDS011;11207;59.512;18.050;2023-04-15T09:53:25;5.47;;;3.77;;
22080;SDS011;11207;59.512;18.050;2023-04-15T09:58:25;10.67;;;3.93;;
22080;SDS011;11207;59.512;18.050;2023-04-15T10:00:54;9.33;;;4.63;;
22080;SDS011;11207;59.512;18.050;2023-04-15T10:05:52;10.33;;;4.60;;
22080;SDS011;11207;59.512;18.050;2023-04-15T10:08:20;7.23;;;4.10;;
22080;SDS011;11207;59.512;18.050;2023-04-15T10:10:51;5.50;;;3.80;;
22080;SDS011;11207;59.512;18.050;2023-04-15T10:13:18;5.83;;;3.90;;
22080;SDS011;11207;59.512;18.050;2023-04-15T10:15:57;4.60;;;3.40;;
22080;SDS011;11207;59.512;18.050;2023-04-15T10:18:25;5.20;;;3.73;;
22080;SDS011;11207;59.512;18.050;2023-04-15T10:20:52;7.63;;;3.77;;
22080;SDS011;11207;59.512;18.050;2023-04-15T10:23:18;6.43;;;3.80;;
22080;SDS011;11207;59.512;18.050;2023-04-15T10:25:45;7.00;;;3.30;;
22080;SDS011;11207;59.512;18.050;2023-04-15T10:28:11;6.10;;;3.73;;
22080;SDS011;11207;59.512;18.050;2023-04-15T10:30:37;11.00;;;3.70;;
22080;SDS011;11207;59.512;18.050;2023-04-15T10:33:03;5.33;;;3.50;;
22080;SDS011;11207;59.512;18.050;2023-04-15T10:35:31;5.03;;;3.10;;
22080;SDS011;11207;59.512;18.050;2023-04-15T10:37:58;8.27;;;4.07;;
22080;SDS011;11207;59.512;18.050;2023-04-15T10:40:30;8.30;;;3.70;;
22080;SDS011;11207;59.512;18.050;2023-04-15T10:42:57;6.87;;;3.67;;
22080;SDS011;11207;59.512;18.050;2023-04-15T10:45:34;6.13;;;3.60;;
22080;SDS011;11207;59.512;18.050;2023-04-15T10:48:01;4.57;;;3.83;;
22080;SDS011;11207;59.512;18.050;2023-04-15T10:50:32;4.13;;;3.30;;
22080;SDS011;11207;59.512;18.050;2023-04-15T10:52:58;7.43;;;3.63;;
22080;SDS011;11207;59.512;18.050;2023-04-15T10:55:31;6.40;;;3.57;;
22080;SDS011;11207;59.512;18.050;2023-04-15T10:57:57;7.53;;;3.50;;
22080;SDS011;11207;59.512;18.050;2023-04-15T11:00:27;7.27;;;3.53;;
22080;SDS011;11207;59.512;18.050;2023-04-15T11:02:57;4.70;;;3.13;;
22080;SDS011;11207;59.512;18.050;2023-04-15T11:08:07;5.47;;;3.47;;
22080;SDS011;11207;59.512;18.050;2023-04-15T11:12:59;9.57;;;3.40;;
22080;SDS011;11207;59.512;18.050;2023-04-15T11:15:30;8.20;;;3.53;;
22080;SDS011;11207;59.512;18.050;2023-04-15T11:20:43;6.87;;;3.13;;
22080;SDS011;11207;59.512;18.050;2023-04-15T11:23:14;5.90;;;3.30;;
22080;SDS011;11207;59.512;18.050;2023-04-15T11:25:42;5.93;;;3.27;;
22080;SDS011;11207;59.512;18.050;2023-04-15T11:28:07;7.30;;;3.70;;
22080;SDS011;11207;59.512;18.050;2023-04-15T11:30:34;4.67;;;3.30;;
22080;SDS011;11207;59.512;18.050;2023-04-15T11:33:05;5.30;;;3.60;;
22080;SDS011;11207;59.512;18.050;2023-04-15T11:35:32;5.23;;;3.67;;
22080;SDS011;11207;59.512;18.050;2023-04-15T11:38:01;9.17;;;4.40;;
22080;SDS011;11207;59.512;18.050;2023-04-15T11:40:28;7.07;;;4.07;;
22080;SDS011;11207;59.512;18.050;2023-04-15T11:43:05;6.70;;;3.90;;
22080;SDS011;11207;59.512;18.050;2023-04-15T11:45:35;5.03;;;3.50;;
22080;SDS011;11207;59.512;18.050;2023-04-15T11:48:06;6.53;;;3.20;;
22080;SDS011;11207;59.512;18.050;2023-04-15T11:50:36;9.17;;;3.53;;
22080;SDS011;11207;59.512;18.050;2023-04-15T11:53:06;5.73;;;3.47;;
22080;SDS011;11207;59.512;18.050;2023-04-15T11:55:44;5.97;;;3.40;;
22080;SDS011;11207;59.512;18.050;2023-04-15T12:00:44;11.47;;;3.97;;
22080;SDS011;11207;59.512;18.050;2023-04-15T12:16:34;3.87;;;3.17;;
22080;SDS011;11207;59.512;18.050;2023-04-15T12:19:06;8.90;;;3.83;;
22080;SDS011;11207;59.512;18.050;2023-04-15T12:21:38;4.03;;;2.90;;
22080;SDS011;11207;59.512;18.050;2023-04-15T12:24:06;5.30;;;3.47;;
22080;SDS011;11207;59.512;18.050;2023-04-15T12:26:34;3.97;;;2.90;;
22080;SDS011;11207;59.512;18.050;2023-04-15T12:29:03;10.40;;;3.80;;
22080;SDS011;11207;59.512;18.050;2023-04-15T12:31:31;6.80;;;3.97;;
22080;SDS011;11207;59.512;18.050;2023-04-15T12:34:10;8.23;;;4.17;;
22080;SDS011;11207;59.512;18.050;2023-04-15T12:36:36;8.70;;;3.77;;
22080;SDS011;11207;59.512;18.050;2023-04-15T12:39:04;8.40;;;3.30;;
22080;SDS011;11207;59.512;18.050;2023-04-15T12:41:31;6.77;;;3.63;;
22080;SDS011;11207;59.512;18.050;2023-04-15T12:43:57;6.60;;;3.67;;
22080;SDS011;11207;59.512;18.050;2023-04-15T12:46:23;5.90;;;3.80;;
22080;SDS011;11207;59.512;18.050;2023-04-15T12:48:50;6.97;;;3.90;;
22080;SDS011;11207;59.512;18.050;2023-04-15T12:51:18;6.37;;;4.00;;
22080;SDS011;11207;59.512;18.050;2023-04-15T12:53:47;5.30;;;3.67;;
22080;SDS011;11207;59.512;18.050;2023-04-15T12:56:13;5.37;;;3.87;;
22080;SDS011;11207;59.512;18.050;2023-04-15T12:58:40;7.50;;;4.27;;
22080;SDS011;11207;59.512;18.050;2023-04-15T13:01:07;7.33;;;4.20;;
22080;SDS011;11207;59.512;18.050;2023-04-15T13:03:32;5.33;;;3.87;;
22080;SDS011;11207;59.512;18.050;2023-04-15T13:05:58;7.10;;;4.10;;
22080;SDS011;11207;59.512;18.050;2023-04-15T13:08:26;4.37;;;3.57;;
22080;SDS011;11207;59.512;18.050;2023-04-15T13:10:52;5.82;;;3.90;;
22080;SDS011;11207;59.512;18.050;2023-04-15T13:13:17;5.97;;;3.67;;
22080;SDS011;11207;59.512;18.050;2023-04-15T13:15:43;5.90;;;3.87;;
22080;SDS011;11207;59.512;18.050;2023-04-15T13:18:10;7.63;;;3.53;;
22080;SDS011;11207;59.512;18.050;2023-04-15T13:20:35;5.30;;;3.90;;
22080;SDS011;11207;59.512;18.050;2023-04-15T13:23:01;6.93;;;4.00;;
22080;SDS011;11207;59.512;18.050;2023-04-15T13:25:27;6.00;;;4.10;;
22080;SDS011;11207;59.512;18.050;2023-04-15T13:27:52;12.17;;;4.67;;
22080;SDS011;11207;59.512;18.050;2023-04-15T13:30:18;5.53;;;3.80;;
22080;SDS011;11207;59.512;18.050;2023-04-15T13:32:44;8.80;;;4.20;;
22080;SDS011;11207;59.512;18.050;2023-04-15T13:35:10;4.33;;;3.67;;
22080;SDS011;11207;59.512;18.050;2023-04-15T13:37:35;7.60;;;4.10;;
22080;SDS011;11207;59.512;18.050;2023-04-15T13:40:01;5.70;;;4.03;;
22080;SDS011;11207;59.512;18.050;2023-04-15T13:42:27;7.53;;;3.80;;
22080;SDS011;11207;59.512;18.050;2023-04-15T13:44:53;5.63;;;3.93;;
22080;SDS011;11207;59.512;18.050;2023-04-15T13:47:18;6.60;;;4.00;;
22080;SDS011;11207;59.512;18.050;2023-04-15T13:49:44;4.30;;;3.50;;
22080;SDS011;11207;59.512;18.050;2023-04-15T13:52:10;5.83;;;3.93;;
22080;SDS011;11207;59.512;18.050;2023-04-15T13:54:36;5.83;;;3.50;;
22080;SDS011;11207;59.512;18.050;2023-04-15T13:57:02;8.07;;;4.10;;
22080;SDS011;11207;59.512;18.050;2023-04-15T13:59:28;4.97;;;3.40;;
22080;SDS011;11207;59.512;18.050;2023-04-15T14:01:54;5.70;;;3.77;;
22080;SDS011;11207;59.512;18.050;2023-04-15T14:04:20;6.13;;;4.20;;
22080;SDS011;11207;59.512;18.050;2023-04-15T14:06:45;5.87;;;3.60;;
22080;SDS011;11207;59.512;18.050;2023-04-15T14:09:11;5.23;;;3.90;;
22080;SDS011;11207;59.512;18.050;2023-04-15T14:11:39;7.87;;;4.37;;
22080;SDS011;11207;59.512;18.050;2023-04-15T14:14:05;5.17;;;3.13;;
22080;SDS011;11207;59.512;18.050;2023-04-15T14:16:31;9.20;;;4.03;;
22080;SDS011;11207;59.512;18.050;2023-04-15T14:18:57;11.07;;;3.80;;
22080;SDS011;11207;59.512;18.050;2023-04-15T14:21:23;8.77;;;4.00;;
22080;SDS011;11207;59.512;18.050;2023-04-15T14:23:50;6.53;;;3.90;;
22080;SDS011;11207;59.512;18.050;2023-04-15T14:26:15;6.93;;;3.80;;
22080;SDS011;11207;59.512;18.050;2023-04-15T14:28:41;7.87;;;3.90;;
22080;SDS011;11207;59.512;18.050;2023-04-15T14:31:08;7.03;;;3.80;;
22080;SDS011;11207;59.512;18.050;2023-04-15T14:33:34;6.07;;;3.97;;
22080;SDS011;11207;59.512;18.050;2023-04-15T14:36:00;5.90;;;3.97;;
22080;SDS011;11207;59.512;18.050;2023-04-15T14:38:25;7.57;;;4.10;;
22080;SDS011;11207;59.512;18.050;2023-04-15T14:40:51;6.60;;;4.10;;
22080;SDS011;11207;59.512;18.050;2023-04-15T14:43:17;8.47;;;4.07;;
22080;SDS011;11207;59.512;18.050;2023-04-15T14:45:42;8.07;;;4.37;;
22080;SDS011;11207;59.512;18.050;2023-04-15T14:48:08;10.27;;;4.37;;
22080;SDS011;11207;59.512;18.050;2023-04-15T14:50:34;10.13;;;4.30;;
22080;SDS011;11207;59.512;18.050;2023-04-15T14:53:00;4.13;;;3.40;;